createdAt,value
2017-01-11T00:00:31.639Z,1004.18
2017-01-11T00:01:36.838Z,1004.11
2017-01-11T00:02:41.792Z,1004.16
2017-01-11T00:03:47.002Z,1004.18
2017-01-11T00:04:51.244Z,1004.21
2017-01-11T00:05:57.407Z,1004.15
2017-01-11T00:07:01.706Z,1004.1
2017-01-11T00:08:07.876Z,1004.07
2017-01-11T00:09:13.167Z,1004.05
2017-01-11T00:10:19.345Z,1004.08
2017-01-11T00:11:25.515Z,1004.09
2017-01-11T00:12:31.703Z,1004.11
2017-01-11T00:13:37.871Z,1004.05
2017-01-11T00:14:40.309Z,1004
2017-01-11T00:15:46.501Z,1004.02
2017-01-11T00:16:52.678Z,1004.06
2017-01-11T00:17:58.849Z,1004
2017-01-11T00:19:05.012Z,1003.98
2017-01-11T00:20:10.223Z,1003.94
2017-01-11T00:21:16.402Z,1003.86
2017-01-11T00:22:22.353Z,1003.87
2017-01-11T00:23:28.524Z,1003.86
2017-01-11T00:24:34.691Z,1003.86
2017-01-11T00:25:40.870Z,1003.85
2017-01-11T00:26:46.049Z,1003.82
2017-01-11T00:27:51.233Z,1003.85
2017-01-11T00:28:57.393Z,1003.83
2017-01-11T00:30:02.590Z,1003.84
2017-01-11T00:31:07.786Z,1003.83
2017-01-11T00:32:14.000Z,1003.89
2017-01-11T00:33:44.940Z,1003.82
2017-01-11T00:34:51.070Z,1003.82
2017-01-11T00:35:57.234Z,1003.86
2017-01-11T00:37:03.421Z,1003.84
2017-01-11T00:38:09.581Z,1003.84
2017-01-11T00:40:21.928Z,1003.8
2017-01-11T00:41:28.094Z,1003.79
2017-01-11T00:42:34.271Z,1003.8
2017-01-11T00:43:39.467Z,1003.82
2017-01-11T00:44:45.632Z,1003.83
2017-01-11T00:45:49.844Z,1003.88
2017-01-11T00:46:56.038Z,1003.89
2017-01-11T00:48:01.245Z,1003.86
2017-01-11T00:49:07.413Z,1003.82
2017-01-11T00:50:13.717Z,1003.76
2017-01-11T00:51:19.922Z,1003.69
2017-01-11T00:52:26.060Z,1003.76
2017-01-11T00:53:32.227Z,1003.73
2017-01-11T00:54:36.427Z,1003.71
2017-01-11T00:55:42.777Z,1003.61
2017-01-11T00:56:48.064Z,1003.62
2017-01-11T00:57:54.232Z,1003.61
2017-01-11T00:59:00.412Z,1003.61
2017-01-11T01:00:05.582Z,1003.68
2017-01-11T01:01:10.780Z,1003.76
2017-01-11T01:02:15.982Z,1003.78
2017-01-11T01:03:22.181Z,1003.74
2017-01-11T01:04:27.379Z,1003.66
2017-01-11T01:05:33.550Z,1003.6
2017-01-11T01:06:39.759Z,1003.58
2017-01-11T01:07:44.921Z,1003.64
2017-01-11T01:08:50.128Z,1003.72
2017-01-11T01:09:56.293Z,1003.77
2017-01-11T01:11:02.463Z,1003.73
2017-01-11T01:12:08.636Z,1003.64
2017-01-11T01:13:13.924Z,1003.56
2017-01-11T01:14:17.149Z,1003.59
2017-01-11T01:15:23.315Z,1003.59
2017-01-11T01:16:28.582Z,1003.57
2017-01-11T01:17:33.761Z,1003.5
2017-01-11T01:18:39.783Z,1003.55
2017-01-11T01:19:45.946Z,1003.49
2017-01-11T01:20:52.108Z,1003.49
2017-01-11T01:21:58.323Z,1003.52
2017-01-11T01:23:04.495Z,1003.5
2017-01-11T01:24:08.824Z,1003.49
2017-01-11T01:25:14.994Z,1003.43
2017-01-11T01:26:21.161Z,1003.43
2017-01-11T01:27:25.399Z,1003.42
2017-01-11T01:28:31.581Z,1003.42
2017-01-11T01:29:37.749Z,1003.49
2017-01-11T01:30:43.916Z,1003.51
2017-01-11T01:31:50.093Z,1003.48
2017-01-11T01:32:55.292Z,1003.49
2017-01-11T01:34:00.493Z,1003.44
2017-01-11T01:35:06.713Z,1003.41
2017-01-11T01:36:12.889Z,1003.42
2017-01-11T01:37:19.072Z,1003.44
2017-01-11T01:38:25.239Z,1003.46
2017-01-11T01:39:29.471Z,1003.39
2017-01-11T01:40:34.672Z,1003.38
2017-01-11T01:41:40.847Z,1003.39
2017-01-11T01:42:47.008Z,1003.45
2017-01-11T01:43:53.273Z,1003.44
2017-01-11T01:44:58.468Z,1003.43
2017-01-11T01:46:03.714Z,1003.44
2017-01-11T01:47:09.881Z,1003.49
2017-01-11T01:48:16.046Z,1003.47
2017-01-11T01:49:22.225Z,1003.48
2017-01-11T01:50:28.391Z,1003.42
2017-01-11T01:51:34.559Z,1003.41
2017-01-11T01:52:37.863Z,1003.33
2017-01-11T01:53:44.025Z,1003.32
2017-01-11T01:54:50.160Z,1003.24
2017-01-11T01:55:56.329Z,1003.24
2017-01-11T01:57:02.494Z,1003.23
2017-01-11T01:58:07.700Z,1003.21
2017-01-11T01:59:12.894Z,1003.16
2017-01-11T02:00:17.114Z,1003.15
2017-01-11T02:01:22.304Z,1003.1
2017-01-11T02:02:28.468Z,1003.12
2017-01-11T02:03:33.730Z,1003.14
2017-01-11T02:04:38.929Z,1003.16
2017-01-11T02:05:44.159Z,1003.13
2017-01-11T02:06:50.325Z,1003.16
2017-01-11T02:07:55.558Z,1003.15
2017-01-11T02:09:01.705Z,1003.13
2017-01-11T02:10:07.879Z,1003.09
2017-01-11T02:11:14.041Z,1003.01
2017-01-11T02:12:19.246Z,1002.94
2017-01-11T02:13:23.475Z,1002.9
2017-01-11T02:14:28.675Z,1002.95
2017-01-11T02:15:33.886Z,1002.95
2017-01-11T02:16:40.061Z,1002.96
2017-01-11T02:17:46.231Z,1003
2017-01-11T02:18:52.395Z,1002.98
2017-01-11T02:19:57.588Z,1002.95
2017-01-11T02:21:02.921Z,1002.91
2017-01-11T02:22:08.127Z,1002.76
2017-01-11T02:23:14.345Z,1002.77
2017-01-11T02:24:19.536Z,1002.72
2017-01-11T02:25:24.730Z,1002.68
2017-01-11T02:26:29.928Z,1002.67
2017-01-11T02:27:35.124Z,1002.53
2017-01-11T02:28:41.295Z,1002.53
2017-01-11T02:29:47.478Z,1002.58
2017-01-11T02:30:51.672Z,1002.56
2017-01-11T02:31:55.937Z,1002.6
2017-01-11T02:32:59.205Z,1002.6
2017-01-11T02:34:05.366Z,1002.59
2017-01-11T02:35:11.543Z,1002.63
2017-01-11T02:36:15.802Z,1002.66
2017-01-11T02:37:20.964Z,1002.62
2017-01-11T02:38:27.133Z,1002.61
2017-01-11T02:39:33.298Z,1002.61
2017-01-11T02:40:39.469Z,1002.65
2017-01-11T02:41:44.639Z,1002.59
2017-01-11T02:42:50.802Z,1002.56
2017-01-11T02:43:56.966Z,1002.58
2017-01-11T02:45:01.167Z,1002.52
2017-01-11T02:46:06.366Z,1002.53
2017-01-11T02:47:10.596Z,1002.47
2017-01-11T02:48:16.765Z,1002.49
2017-01-11T02:49:22.331Z,1002.55
2017-01-11T02:50:27.575Z,1002.5
2017-01-11T02:51:33.822Z,1002.51
2017-01-11T02:52:38.083Z,1002.43
2017-01-11T02:53:44.256Z,1002.38
2017-01-11T02:54:49.425Z,1002.33
2017-01-11T02:55:54.603Z,1002.31
2017-01-11T02:57:00.771Z,1002.26
2017-01-11T02:58:06.938Z,1002.19
2017-01-11T02:59:13.097Z,1002.12
2017-01-11T03:00:19.257Z,1002.09
2017-01-11T03:01:25.431Z,1002.07
2017-01-11T03:02:30.636Z,1002.04
2017-01-11T03:03:36.803Z,1002.04
2017-01-11T03:04:42.975Z,1002.06
2017-01-11T03:05:49.140Z,1002.1
2017-01-11T03:06:55.311Z,1002.15
2017-01-11T03:08:00.503Z,1002.22
2017-01-11T03:09:06.807Z,1002.27
2017-01-11T03:10:12.012Z,1002.26
2017-01-11T03:11:17.259Z,1002.26
2017-01-11T03:12:23.419Z,1002.17
2017-01-11T03:13:28.619Z,1002.13
2017-01-11T03:14:34.778Z,1002.12
2017-01-11T03:15:40.970Z,1002.14
2017-01-11T03:16:45.199Z,1002.19
2017-01-11T03:17:51.371Z,1002.15
2017-01-11T03:18:55.612Z,1002.14
2017-01-11T03:20:00.801Z,1002.16
2017-01-11T03:21:06.001Z,1002.16
2017-01-11T03:22:12.169Z,1002.11
2017-01-11T03:23:16.397Z,1002.16
2017-01-11T03:24:20.657Z,1002.14
2017-01-11T03:25:26.859Z,1002.15
2017-01-11T03:26:32.993Z,1002.11
2017-01-11T03:27:39.163Z,1002.03
2017-01-11T03:28:45.362Z,1002.02
2017-01-11T03:29:51.565Z,1001.99
2017-01-11T03:30:57.715Z,1002.01
2017-01-11T03:32:02.882Z,1002.04
2017-01-11T03:33:08.081Z,1002.09
2017-01-11T03:34:14.240Z,1002.15
2017-01-11T03:35:19.430Z,1002.19
2017-01-11T03:36:25.610Z,1002.21
2017-01-11T03:37:29.813Z,1002.14
2017-01-11T03:38:35.009Z,1002.12
2017-01-11T03:39:40.208Z,1002.05
2017-01-11T03:40:46.377Z,1002.07
2017-01-11T03:41:51.588Z,1002.07
2017-01-11T03:42:56.804Z,1002.08
2017-01-11T03:44:02.962Z,1002.05
2017-01-11T03:45:09.125Z,1002.04
2017-01-11T03:46:13.359Z,1002.02
2017-01-11T03:47:17.564Z,1002.06
2017-01-11T03:48:23.728Z,1002.04
2017-01-11T03:49:29.893Z,1001.98
2017-01-11T03:50:35.090Z,1001.95
2017-01-11T03:51:41.254Z,1001.91
2017-01-11T03:52:47.432Z,1001.89
2017-01-11T03:53:53.596Z,1001.87
2017-01-11T03:54:58.804Z,1001.82
2017-01-11T03:56:04.975Z,1001.77
2017-01-11T03:57:11.137Z,1001.77
2017-01-11T03:58:17.306Z,1001.69
2017-01-11T03:59:23.535Z,1001.68
2017-01-11T04:00:29.702Z,1001.71
2017-01-11T04:01:35.923Z,1001.71
2017-01-11T04:02:41.181Z,1001.7
2017-01-11T04:03:47.306Z,1001.65
2017-01-11T04:04:53.472Z,1001.52
2017-01-11T04:05:57.668Z,1001.52
2017-01-11T04:07:03.025Z,1001.5
2017-01-11T04:08:08.202Z,1001.47
2017-01-11T04:09:14.386Z,1001.44
2017-01-11T04:10:19.579Z,1001.44
2017-01-11T04:11:24.780Z,1001.49
2017-01-11T04:12:29.973Z,1001.5
2017-01-11T04:13:33.243Z,1001.41
2017-01-11T04:14:39.413Z,1001.45
2017-01-11T04:15:45.686Z,1001.42
2017-01-11T04:16:51.857Z,1001.35
2017-01-11T04:17:57.030Z,1001.41
2017-01-11T04:19:03.199Z,1001.38
2017-01-11T04:20:09.375Z,1001.4
2017-01-11T04:21:15.544Z,1001.27
2017-01-11T04:22:21.796Z,1001.34
2017-01-11T04:23:26.132Z,1001.29
2017-01-11T04:24:29.366Z,1001.25
2017-01-11T04:25:34.596Z,1001.23
2017-01-11T04:26:39.794Z,1001.2
2017-01-11T04:27:45.964Z,1001.22
2017-01-11T04:28:52.131Z,1001.22
2017-01-11T04:29:57.350Z,1001.25
2017-01-11T04:31:03.520Z,1001.3
2017-01-11T04:32:08.721Z,1001.27
2017-01-11T04:33:14.886Z,1001.32
2017-01-11T04:34:21.059Z,1001.26
2017-01-11T04:35:27.226Z,1001.26
2017-01-11T04:36:32.431Z,1001.2
2017-01-11T04:37:37.593Z,1001.24
2017-01-11T04:38:43.781Z,1001.2
2017-01-11T04:39:48.960Z,1001.17
2017-01-11T04:40:54.160Z,1001.19
2017-01-11T04:41:59.367Z,1001.25
2017-01-11T04:43:05.561Z,1001.22
2017-01-11T04:44:11.731Z,1001.23
2017-01-11T04:45:16.073Z,1001.19
2017-01-11T04:46:21.847Z,1001.18
2017-01-11T04:47:28.012Z,1001.18
2017-01-11T04:48:33.211Z,1001.17
2017-01-11T04:49:39.379Z,1001.19
2017-01-11T04:50:43.603Z,1001.05
2017-01-11T04:51:47.817Z,1001.04
2017-01-11T04:52:53.990Z,1001.1
2017-01-11T04:54:00.152Z,1001.09
2017-01-11T04:55:05.355Z,1001.02
2017-01-11T04:56:10.516Z,1000.98
2017-01-11T04:57:15.723Z,1000.97
2017-01-11T04:58:20.895Z,1000.96
2017-01-11T04:59:26.098Z,1000.92
2017-01-11T05:00:32.261Z,1000.89
2017-01-11T05:01:38.560Z,1000.86
2017-01-11T05:02:43.753Z,1000.8
2017-01-11T05:03:49.924Z,1000.84
2017-01-11T05:04:56.088Z,1000.82
2017-01-11T05:06:02.311Z,1000.77
2017-01-11T05:07:08.480Z,1000.7
2017-01-11T05:08:14.645Z,1000.69
2017-01-11T05:09:18.874Z,1000.68
2017-01-11T05:10:25.038Z,1000.72
2017-01-11T05:11:30.236Z,1000.7
2017-01-11T05:12:35.450Z,1000.68
2017-01-11T05:13:41.605Z,1000.61
2017-01-11T05:14:47.787Z,1000.54
2017-01-11T05:15:53.962Z,1000.48
2017-01-11T05:16:59.129Z,1000.48
2017-01-11T05:18:05.302Z,1000.49
2017-01-11T05:19:11.571Z,1000.43
2017-01-11T05:20:16.780Z,1000.36
2017-01-11T05:21:22.941Z,1000.27
2017-01-11T05:22:28.135Z,1000.21
2017-01-11T05:23:34.297Z,1000.13
2017-01-11T05:24:39.503Z,1000.01
2017-01-11T05:25:45.717Z,999.93
2017-01-11T05:26:50.914Z,999.93
2017-01-11T05:27:57.075Z,999.87
2017-01-11T05:29:03.248Z,999.87
2017-01-11T05:30:09.417Z,999.84
2017-01-11T05:31:15.621Z,999.8
2017-01-11T05:32:20.777Z,999.8
2017-01-11T05:33:25.980Z,999.73
2017-01-11T05:34:32.207Z,999.66
2017-01-11T05:35:37.397Z,999.71
2017-01-11T05:36:43.560Z,999.7
2017-01-11T05:37:49.731Z,999.62
2017-01-11T05:38:55.947Z,999.68
2017-01-11T05:40:01.144Z,999.6
2017-01-11T05:41:07.307Z,999.51
2017-01-11T05:42:13.467Z,999.47
2017-01-11T05:43:19.637Z,999.38
2017-01-11T05:44:24.840Z,999.42
2017-01-11T05:45:31.020Z,999.41
2017-01-11T05:46:36.257Z,999.41
2017-01-11T05:47:42.477Z,999.44
2017-01-11T05:48:47.670Z,999.41
2017-01-11T05:49:53.832Z,999.31
2017-01-11T05:50:58.996Z,999.29
2017-01-11T05:52:04.897Z,999.27
2017-01-11T05:53:10.097Z,999.31
2017-01-11T05:54:16.266Z,999.37
2017-01-11T05:55:21.484Z,999.33
2017-01-11T05:56:26.681Z,999.3
2017-01-11T05:57:32.844Z,999.39
2017-01-11T05:58:39.017Z,999.3
2017-01-11T05:59:44.217Z,999.28
2017-01-11T06:00:50.450Z,999.23
2017-01-11T06:01:56.624Z,999.26
2017-01-11T06:03:01.882Z,999.08
2017-01-11T06:04:07.080Z,999.04
2017-01-11T06:05:11.286Z,999.06
2017-01-11T06:06:17.449Z,999.12
2017-01-11T06:07:23.677Z,999.12
2017-01-11T06:08:28.843Z,999.2
2017-01-11T06:09:35.008Z,999.18
2017-01-11T06:10:41.176Z,999.3
2017-01-11T06:11:46.515Z,999.36
2017-01-11T06:12:52.772Z,999.41
2017-01-11T06:13:56.302Z,999.26
2017-01-11T06:15:02.532Z,999.36
2017-01-11T06:16:08.695Z,999.34
2017-01-11T06:17:13.925Z,999.36
2017-01-11T06:18:20.057Z,999.32
2017-01-11T06:19:25.315Z,999.43
2017-01-11T06:20:30.492Z,999.48
2017-01-11T06:21:35.663Z,999.42
2017-01-11T06:22:41.825Z,999.36
2017-01-11T06:23:47.991Z,999.38
2017-01-11T06:24:54.158Z,999.34
2017-01-11T06:26:00.328Z,999.44
2017-01-11T06:27:06.496Z,999.44
2017-01-11T06:28:10.697Z,999.42
2017-01-11T06:29:15.904Z,999.43
2017-01-11T06:30:22.065Z,999.39
2017-01-11T06:31:28.238Z,999.47
2017-01-11T06:32:32.468Z,999.41
2017-01-11T06:33:38.682Z,999.39
2017-01-11T06:34:43.836Z,999.42
2017-01-11T06:35:48.064Z,999.36
2017-01-11T06:36:52.278Z,999.37
2017-01-11T06:37:57.504Z,999.41
2017-01-11T06:39:03.665Z,999.33
2017-01-11T06:40:09.837Z,999.31
2017-01-11T06:41:16.030Z,999.34
2017-01-11T06:42:22.167Z,999.44
2017-01-11T06:43:27.673Z,999.4
2017-01-11T06:44:32.867Z,999.43
2017-01-11T06:45:39.070Z,999.37
2017-01-11T06:46:45.212Z,999.35
2017-01-11T06:47:50.417Z,999.39
2017-01-11T06:48:56.578Z,999.36
2017-01-11T06:50:01.770Z,999.4
2017-01-11T06:51:07.078Z,999.36
2017-01-11T06:52:13.287Z,999.4
2017-01-11T06:53:19.425Z,999.4
2017-01-11T06:54:25.585Z,999.35
2017-01-11T06:55:31.758Z,999.28
2017-01-11T06:56:37.926Z,999.3
2017-01-11T06:57:44.091Z,999.31
2017-01-11T06:58:48.281Z,999.26
2017-01-11T06:59:54.444Z,999.18
2017-01-11T07:01:00.618Z,999.09
2017-01-11T07:02:06.778Z,999.05
2017-01-11T07:03:12.939Z,999
2017-01-11T07:04:18.144Z,998.99
2017-01-11T07:05:23.395Z,998.96
2017-01-11T07:06:29.573Z,998.98
2017-01-11T07:07:35.738Z,998.92
2017-01-11T07:08:41.905Z,998.97
2017-01-11T07:09:47.102Z,998.95
2017-01-11T07:10:53.273Z,998.94
2017-01-11T07:11:57.486Z,998.95
2017-01-11T07:13:03.642Z,998.97
2017-01-11T07:14:09.855Z,998.89
2017-01-11T07:15:15.016Z,998.86
2017-01-11T07:16:20.226Z,998.75
2017-01-11T07:17:24.428Z,998.73
2017-01-11T07:18:30.588Z,998.71
2017-01-11T07:19:36.797Z,998.7
2017-01-11T07:20:42.929Z,998.63
2017-01-11T07:21:49.087Z,998.55
2017-01-11T07:22:55.268Z,998.62
2017-01-11T07:24:01.430Z,998.59
2017-01-11T07:25:07.245Z,998.56
2017-01-11T07:26:13.415Z,998.59
2017-01-11T07:27:18.614Z,998.57
2017-01-11T07:28:23.915Z,998.51
2017-01-11T07:29:30.188Z,998.52
2017-01-11T07:30:36.368Z,998.47
2017-01-11T07:31:42.552Z,998.44
2017-01-11T07:32:48.706Z,998.42
2017-01-11T07:33:54.872Z,998.43
2017-01-11T07:35:00.108Z,998.45
2017-01-11T07:36:05.323Z,998.48
2017-01-11T07:37:10.552Z,998.46
2017-01-11T07:38:15.724Z,998.47
2017-01-11T07:39:20.924Z,998.47
2017-01-11T07:40:27.125Z,998.43
2017-01-11T07:41:33.418Z,998.41
2017-01-11T07:42:39.581Z,998.37
2017-01-11T07:43:45.774Z,998.33
2017-01-11T07:44:50.944Z,998.31
2017-01-11T07:45:56.161Z,998.27
2017-01-11T07:47:01.353Z,998.22
2017-01-11T07:48:06.557Z,998.16
2017-01-11T07:49:11.762Z,998.1
2017-01-11T07:50:18.031Z,998.08
2017-01-11T07:51:23.228Z,997.96
2017-01-11T07:52:29.396Z,997.92
2017-01-11T07:53:35.556Z,998.01
2017-01-11T07:54:41.766Z,998
2017-01-11T07:55:47.932Z,997.98
2017-01-11T07:56:54.151Z,997.94
2017-01-11T07:58:00.313Z,997.94
2017-01-11T07:59:06.570Z,997.8
2017-01-11T08:00:11.018Z,997.68
2017-01-11T08:01:16.259Z,997.71
2017-01-11T08:02:22.382Z,997.68
2017-01-11T08:03:28.595Z,997.69
2017-01-11T08:04:34.135Z,997.73
2017-01-11T08:05:40.297Z,997.74
2017-01-11T08:06:45.506Z,997.73
2017-01-11T08:07:51.680Z,997.75
2017-01-11T08:08:56.888Z,997.79
2017-01-11T08:10:02.088Z,997.79
2017-01-11T08:11:07.281Z,997.74
2017-01-11T08:12:13.466Z,997.69
2017-01-11T08:13:17.690Z,997.51
2017-01-11T08:14:22.989Z,997.48
2017-01-11T08:15:28.199Z,997.39
2017-01-11T08:16:34.429Z,997.31
2017-01-11T08:17:40.564Z,997.38
2017-01-11T08:18:46.727Z,997.41
2017-01-11T08:19:51.926Z,997.41
2017-01-11T08:20:58.152Z,997.39
2017-01-11T08:22:04.323Z,997.32
2017-01-11T08:23:07.556Z,997.18
2017-01-11T08:24:11.761Z,997.03
2017-01-11T08:25:16.955Z,996.88
2017-01-11T08:26:22.159Z,996.88
2017-01-11T08:27:28.317Z,996.83
2017-01-11T08:28:33.522Z,996.85
2017-01-11T08:29:39.681Z,996.7
2017-01-11T08:30:45.867Z,996.71
2017-01-11T08:31:52.031Z,996.64
2017-01-11T08:32:56.298Z,996.61
2017-01-11T08:34:00.580Z,996.66
2017-01-11T08:35:05.140Z,996.66
2017-01-11T08:36:11.310Z,996.76
2017-01-11T08:37:16.541Z,996.64
2017-01-11T08:38:22.749Z,996.49
2017-01-11T08:39:28.075Z,996.53
2017-01-11T08:40:33.214Z,996.52
2017-01-11T08:41:39.388Z,996.47
2017-01-11T08:42:45.663Z,996.47
2017-01-11T08:43:51.834Z,996.46
2017-01-11T08:44:57.044Z,996.41
2017-01-11T08:46:03.215Z,996.46
2017-01-11T08:47:09.379Z,996.54
2017-01-11T08:48:15.552Z,996.54
2017-01-11T08:49:21.808Z,996.51
2017-01-11T08:50:27.975Z,996.51
2017-01-11T08:51:34.157Z,996.48
2017-01-11T08:52:40.361Z,996.41
2017-01-11T08:53:46.542Z,996.32
2017-01-11T08:54:52.713Z,996.28
2017-01-11T08:55:58.888Z,996.22
2017-01-11T08:57:04.090Z,996.14
2017-01-11T08:58:10.260Z,996.15
2017-01-11T08:59:16.424Z,996.11
2017-01-11T09:00:21.630Z,996.05
2017-01-11T09:01:27.795Z,996.07
2017-01-11T09:02:32.988Z,996.01
2017-01-11T09:03:37.218Z,996.13
2017-01-11T09:04:43.453Z,996.05
2017-01-11T09:05:49.629Z,996.01
2017-01-11T09:06:55.799Z,995.86
2017-01-11T09:08:01.962Z,995.84
2017-01-11T09:09:07.169Z,995.85
2017-01-11T09:10:13.336Z,995.89
2017-01-11T09:11:19.517Z,995.89
2017-01-11T09:12:24.721Z,995.82
2017-01-11T09:13:30.891Z,995.86
2017-01-11T09:14:36.078Z,995.82
2017-01-11T09:15:41.293Z,995.78
2017-01-11T09:16:46.493Z,995.79
2017-01-11T09:17:51.695Z,995.78
2017-01-11T09:18:57.854Z,995.62
2017-01-11T09:20:04.019Z,995.68
2017-01-11T09:21:10.188Z,995.57
2017-01-11T09:22:16.353Z,995.58
2017-01-11T09:23:21.564Z,995.42
2017-01-11T09:24:27.719Z,995.47
2017-01-11T09:25:32.917Z,995.43
2017-01-11T09:26:38.118Z,995.47
2017-01-11T09:27:43.308Z,995.38
2017-01-11T09:28:49.471Z,995.32
2017-01-11T09:29:55.695Z,995.32
2017-01-11T09:31:01.863Z,995.23
2017-01-11T09:32:08.107Z,995.21
2017-01-11T09:33:14.271Z,995.2
2017-01-11T09:34:20.442Z,995.18
2017-01-11T09:35:26.627Z,995.24
2017-01-11T09:36:31.888Z,995.13
2017-01-11T09:37:37.087Z,995.15
2017-01-11T09:38:43.252Z,995
2017-01-11T09:39:48.453Z,995.08
2017-01-11T09:40:53.655Z,995.08
2017-01-11T09:41:59.816Z,995.16
2017-01-11T09:43:06.080Z,995.06
2017-01-11T09:44:12.232Z,994.9
2017-01-11T09:45:18.401Z,994.95
2017-01-11T09:46:24.572Z,994.7
2017-01-11T09:47:29.762Z,994.8
2017-01-11T09:48:35.927Z,994.78
2017-01-11T09:49:41.130Z,994.7
2017-01-11T09:50:47.289Z,994.64
2017-01-11T09:51:53.475Z,994.61
2017-01-11T09:52:59.636Z,994.59
2017-01-11T09:54:05.807Z,994.52
2017-01-11T09:55:11.978Z,994.49
2017-01-11T09:56:18.257Z,994.46
2017-01-11T09:57:24.425Z,994.49
2017-01-11T09:58:29.656Z,994.49
2017-01-11T09:59:35.790Z,994.52
2017-01-11T10:00:40.994Z,994.27
2017-01-11T10:01:47.323Z,994.25
2017-01-11T10:02:52.704Z,994.13
2017-01-11T10:03:58.947Z,994.05
2017-01-11T10:05:05.146Z,994.15
2017-01-11T10:06:11.304Z,994.13
2017-01-11T10:07:16.511Z,994.25
2017-01-11T10:08:22.672Z,994.09
2017-01-11T10:09:26.868Z,994.08
2017-01-11T10:10:31.089Z,994.09
2017-01-11T10:11:37.260Z,994.09
2017-01-11T10:12:42.445Z,994.04
2017-01-11T10:13:45.687Z,994.05
2017-01-11T10:14:51.851Z,994.29
2017-01-11T10:15:58.012Z,994.33
2017-01-11T10:17:03.185Z,994.11
2017-01-11T10:18:07.386Z,994.11
2017-01-11T10:19:13.548Z,994.11
2017-01-11T10:20:19.711Z,994.14
2017-01-11T10:21:25.882Z,994.05
2017-01-11T10:22:32.038Z,994.05
2017-01-11T10:23:37.225Z,994.01
2017-01-11T10:24:43.396Z,994.04
2017-01-11T10:25:49.561Z,994.19
2017-01-11T10:26:55.726Z,994.11
2017-01-11T10:28:00.934Z,994.12
2017-01-11T10:29:06.134Z,994.05
2017-01-11T10:30:12.359Z,994.08
2017-01-11T10:31:16.572Z,994.01
2017-01-11T10:32:22.742Z,993.99
2017-01-11T10:33:28.935Z,994.08
2017-01-11T10:34:33.123Z,994.07
2017-01-11T10:35:39.284Z,993.97
2017-01-11T10:36:44.496Z,993.97
2017-01-11T10:37:50.713Z,993.84
2017-01-11T10:38:53.964Z,993.9
2017-01-11T10:39:58.186Z,993.83
2017-01-11T10:41:02.390Z,993.78
2017-01-11T10:42:06.618Z,993.73
2017-01-11T10:43:12.800Z,993.73
2017-01-11T10:44:18.011Z,993.53
2017-01-11T10:45:23.213Z,993.45
2017-01-11T10:46:28.405Z,993.52
2017-01-11T10:47:32.646Z,993.47
2017-01-11T10:48:37.849Z,993.44
2017-01-11T10:49:43.097Z,993.4
2017-01-11T10:50:48.272Z,993.51
2017-01-11T10:51:54.460Z,993.47
2017-01-11T10:52:59.640Z,993.46
2017-01-11T10:54:03.842Z,993.34
2017-01-11T10:55:09.046Z,993.32
2017-01-11T10:56:14.247Z,993.2
2017-01-11T10:57:20.413Z,993.5
2017-01-11T10:58:24.651Z,993.47
2017-01-11T10:59:27.923Z,993.36
2017-01-11T11:00:33.096Z,993.38
2017-01-11T11:01:39.255Z,993.41
2017-01-11T11:02:43.493Z,993.41
2017-01-11T11:03:47.693Z,993.34
2017-01-11T11:04:53.860Z,993.14
2017-01-11T11:06:00.032Z,993.11
2017-01-11T11:07:05.234Z,993.1
2017-01-11T11:08:10.397Z,993.31
2017-01-11T11:09:14.639Z,993.12
2017-01-11T11:10:19.836Z,993.14
2017-01-11T11:11:24.109Z,993.08
2017-01-11T11:12:29.275Z,993.07
2017-01-11T11:13:34.479Z,993.03
2017-01-11T11:14:37.718Z,992.99
2017-01-11T11:15:41.928Z,992.97
2017-01-11T11:16:46.272Z,992.95
2017-01-11T11:17:50.018Z,992.88
2017-01-11T11:18:56.184Z,992.85
2017-01-11T11:19:59.419Z,992.91
2017-01-11T11:21:05.585Z,992.97
2017-01-11T11:22:09.823Z,992.85
2017-01-11T11:23:15.024Z,992.72
2017-01-11T11:24:21.199Z,992.81
2017-01-11T11:25:27.354Z,992.78
2017-01-11T11:26:31.581Z,992.86
2017-01-11T11:27:37.747Z,992.78
2017-01-11T11:28:42.948Z,992.76
2017-01-11T11:29:48.857Z,992.7
2017-01-11T11:30:55.021Z,992.67
2017-01-11T11:32:00.236Z,992.69
2017-01-11T11:33:05.444Z,992.64
2017-01-11T11:34:11.655Z,992.62
2017-01-11T11:35:16.856Z,992.57
2017-01-11T11:36:22.080Z,992.52
2017-01-11T11:37:26.360Z,992.61
2017-01-11T11:38:31.521Z,992.69
2017-01-11T11:39:35.755Z,992.69
2017-01-11T11:40:41.924Z,992.7
2017-01-11T11:41:48.106Z,992.81
2017-01-11T11:42:53.434Z,992.81
2017-01-11T11:43:59.566Z,992.78
2017-01-11T11:45:05.738Z,992.79
2017-01-11T11:46:11.906Z,992.67
2017-01-11T11:47:17.108Z,992.76
2017-01-11T11:48:22.272Z,992.59
2017-01-11T11:49:26.580Z,992.63
2017-01-11T11:50:31.791Z,992.74
2017-01-11T11:51:36.984Z,992.63
2017-01-11T11:52:43.153Z,992.53
2017-01-11T11:53:48.364Z,992.6
2017-01-11T11:54:54.568Z,992.73
2017-01-11T11:56:00.730Z,992.71
2017-01-11T11:57:05.901Z,992.63
2017-01-11T11:58:11.073Z,992.63
2017-01-11T11:59:14.317Z,992.55
2017-01-11T12:00:20.484Z,992.53
2017-01-11T12:01:26.655Z,992.55
2017-01-11T12:02:30.863Z,992.8
2017-01-11T12:03:36.072Z,992.62
2017-01-11T12:04:41.240Z,992.74
2017-01-11T12:05:46.443Z,992.48
2017-01-11T12:06:52.666Z,992.61
2017-01-11T12:07:57.878Z,992.57
2017-01-11T12:09:02.893Z,992.5
2017-01-11T12:10:08.053Z,992.46
2017-01-11T12:11:12.267Z,992.6
2017-01-11T12:12:17.434Z,992.77
2017-01-11T12:13:21.655Z,992.61
2017-01-11T12:14:25.893Z,992.71
2017-01-11T12:15:32.104Z,992.49
2017-01-11T12:16:38.268Z,992.62
2017-01-11T12:17:44.441Z,992.65
2017-01-11T12:18:50.722Z,992.66
2017-01-11T12:19:55.925Z,992.61
2017-01-11T12:21:01.129Z,992.64
2017-01-11T12:22:07.287Z,992.66
2017-01-11T12:23:12.492Z,992.58
2017-01-11T12:24:18.662Z,992.63
2017-01-11T12:25:23.862Z,992.61
2017-01-11T12:26:29.122Z,992.54
2017-01-11T12:27:34.326Z,992.62
2017-01-11T12:28:39.521Z,992.64
2017-01-11T12:29:45.682Z,992.68
2017-01-11T12:30:50.882Z,992.64
2017-01-11T12:31:56.085Z,992.72
2017-01-11T12:33:02.262Z,992.77
2017-01-11T12:34:08.414Z,992.68
2017-01-11T12:35:13.618Z,992.76
2017-01-11T12:36:16.856Z,992.66
2017-01-11T12:37:23.026Z,992.75
2017-01-11T12:38:27.339Z,992.88
2017-01-11T12:39:30.582Z,992.8
2017-01-11T12:40:35.927Z,992.77
2017-01-11T12:41:41.499Z,992.8
2017-01-11T12:42:46.667Z,992.81
2017-01-11T12:43:52.838Z,992.85
2017-01-11T12:44:59.014Z,992.84
2017-01-11T12:46:05.180Z,992.81
2017-01-11T12:47:11.348Z,992.77
2017-01-11T12:48:17.516Z,992.83
2017-01-11T12:49:22.717Z,992.81
2017-01-11T12:50:26.949Z,992.83
2017-01-11T12:51:33.124Z,992.81
2017-01-11T12:52:39.294Z,992.75
2017-01-11T12:53:44.494Z,992.79
2017-01-11T12:54:50.661Z,992.89
2017-01-11T12:55:56.828Z,992.91
2017-01-11T12:57:03.008Z,992.92
2017-01-11T12:58:07.240Z,992.9
2017-01-11T12:59:12.413Z,992.87
2017-01-11T13:00:17.627Z,992.82
2017-01-11T13:01:23.817Z,992.92
2017-01-11T13:02:29.999Z,992.86
2017-01-11T13:03:35.198Z,992.79
2017-01-11T13:04:41.361Z,992.71
2017-01-11T13:05:47.530Z,992.66
2017-01-11T13:06:52.739Z,992.65
2017-01-11T13:07:57.910Z,992.71
2017-01-11T13:09:03.120Z,992.71
2017-01-11T13:10:07.358Z,992.72
2017-01-11T13:11:12.593Z,992.67
2017-01-11T13:12:16.755Z,992.73
2017-01-11T13:13:20.067Z,992.76
2017-01-11T13:14:25.266Z,992.68
2017-01-11T13:15:31.431Z,992.58
2017-01-11T13:16:36.633Z,992.58
2017-01-11T13:17:41.829Z,992.66
2017-01-11T13:18:47.022Z,992.63
2017-01-11T13:19:53.276Z,992.71
2017-01-11T13:20:59.449Z,992.64
2017-01-11T13:22:05.618Z,992.66
2017-01-11T13:23:09.850Z,992.62
2017-01-11T13:24:13.079Z,992.65
2017-01-11T13:25:16.361Z,992.66
2017-01-11T13:26:19.600Z,992.6
2017-01-11T13:27:23.907Z,992.62
2017-01-11T13:28:27.203Z,992.63
2017-01-11T13:29:33.381Z,992.68
2017-01-11T13:30:38.586Z,992.63
2017-01-11T13:31:41.861Z,992.65